DLH1347 LATI-LYBE
Flight info
| Callsign | DLH1347 |
|---|---|
| Flight time | N/A |
| Altitude | 31000 |
| Route | RINAV DCT ALELU DCT ELGEB |
| Aircraft | A339/H-SADE1E2E3GHIJ3J5M1P2RWXY/LB2D1 |
Departure
| Time | 2026-05-07 16:59 |
|---|---|
| Airport | Tirana International Airport Mother Teresa (LATI) |
Arrival
| Time | N/A |
|---|---|
| Airport | Belgrade Nikola Tesla Airport (LYBE) |
| Time | Latitude | Longitude | Altitude | Speed | Heading |
|---|---|---|---|---|---|
| 2026-05-07 16:40 | 41.41874 | 19.71540 | 129 ft | 0 kts | 265° |
| 2026-05-07 16:52 | 41.41875 | 19.71550 | 124 ft | 2 kts | 265° |
| 2026-05-07 16:52 | 41.41875 | 19.71569 | 124 ft | 2 kts | 241° |
| 2026-05-07 16:52 | 41.41882 | 19.71586 | 124 ft | 2 kts | 211° |
| 2026-05-07 16:52 | 41.41893 | 19.71597 | 123 ft | 0 kts | 171° |
| 2026-05-07 16:54 | 41.41892 | 19.71597 | 123 ft | 1 kts | 171° |
| 2026-05-07 16:54 | 41.41870 | 19.71600 | 124 ft | 5 kts | 174° |
| 2026-05-07 16:54 | 41.41831 | 19.71601 | 127 ft | 7 kts | 179° |
| 2026-05-07 16:54 | 41.41778 | 19.71602 | 128 ft | 8 kts | 178° |
| 2026-05-07 16:55 | 41.41707 | 19.71608 | 126 ft | 11 kts | 175° |
| 2026-05-07 16:55 | 41.41619 | 19.71621 | 126 ft | 14 kts | 173° |
| 2026-05-07 16:55 | 41.41508 | 19.71638 | 126 ft | 21 kts | 174° |
| 2026-05-07 16:55 | 41.41335 | 19.71662 | 127 ft | 26 kts | 175° |
| 2026-05-07 16:56 | 41.41192 | 19.71682 | 126 ft | 22 kts | 174° |
| 2026-05-07 16:56 | 41.41025 | 19.71704 | 130 ft | 25 kts | 174° |
| 2026-05-07 16:56 | 41.40691 | 19.71752 | 137 ft | 17 kts | 170° |
| 2026-05-07 16:57 | 41.40646 | 19.71796 | 137 ft | 0 kts | 121° |
| 2026-05-07 16:57 | 41.40653 | 19.71780 | 137 ft | 0 kts | 131° |
| 2026-05-07 16:57 | 41.40652 | 19.71781 | 137 ft | 2 kts | 130° |
| 2026-05-07 16:58 | 41.40645 | 19.71868 | 137 ft | 15 kts | 85° |
| 2026-05-07 16:58 | 41.40664 | 19.72024 | 137 ft | 18 kts | 81° |
| 2026-05-07 16:58 | 41.40741 | 19.72137 | 138 ft | 16 kts | 19° |
| 2026-05-07 16:58 | 41.40887 | 19.72130 | 136 ft | 46 kts | 349° |
| 2026-05-07 16:59 | 41.41546 | 19.72051 | 126 ft | 141 kts | 354° |
| 2026-05-07 16:59 | 41.42736 | 19.71872 | 364 ft | 191 kts | 353° |
| 2026-05-07 16:59 | 41.44118 | 19.71688 | 929 ft | 201 kts | 354° |
| 2026-05-07 16:59 | 41.45474 | 19.71544 | 1464 ft | 195 kts | 355° |
| 2026-05-07 17:00 | 41.46832 | 19.71428 | 1766 ft | 197 kts | 359° |
| 2026-05-07 17:00 | 41.48198 | 19.71569 | 1805 ft | 198 kts | 5° |
| 2026-05-07 17:00 | 41.49566 | 19.71756 | 1596 ft | 198 kts | 5° |
| 2026-05-07 17:00 | 41.50956 | 19.71954 | 1218 ft | 203 kts | 6° |
| 2026-05-07 17:01 | 41.52343 | 19.72156 | 1047 ft | 197 kts | 6° |
| 2026-05-07 17:01 | 41.53677 | 19.72347 | 1102 ft | 195 kts | 5° |
| 2026-05-07 17:01 | 41.55021 | 19.72539 | 1448 ft | 194 kts | 6° |
| 2026-05-07 17:01 | 41.55913 | 19.72668 | 1782 ft | 195 kts | 6° |